sensor_id;sensor_type;location;lat;lon;timestamp;pressure;altitude;pressure_sealevel;temperature;humidity
3844;BME280;1937;51.444;6.484;2023-02-19T00:00:14;69846.13;;;11.01;100.00
3844;BME280;1937;51.444;6.484;2023-02-19T00:02:41;69789.34;;;10.95;100.00
3844;BME280;1937;51.444;6.484;2023-02-19T00:05:09;69814.06;;;10.92;100.00
3844;BME280;1937;51.444;6.484;2023-02-19T00:07:37;69833.22;;;10.86;100.00
3844;BME280;1937;51.444;6.484;2023-02-19T00:10:04;69841.13;;;10.69;100.00
3844;BME280;1937;51.444;6.484;2023-02-19T00:12:31;69998.25;;;10.69;100.00
3844;BME280;1937;51.444;6.484;2023-02-19T00:14:57;70022.66;;;10.70;100.00
3844;BME280;1937;51.444;6.484;2023-02-19T00:17:24;70076.78;;;10.61;100.00
3844;BME280;1937;51.444;6.484;2023-02-19T00:19:50;70144.16;;;10.73;100.00
3844;BME280;1937;51.444;6.484;2023-02-19T00:22:17;70126.31;;;10.71;100.00
3844;BME280;1937;51.444;6.484;2023-02-19T00:24:45;70194.19;;;10.76;100.00
3844;BME280;1937;51.444;6.484;2023-02-19T00:27:11;70169.34;;;10.72;100.00
3844;BME280;1937;51.444;6.484;2023-02-19T00:29:38;70127.88;;;10.59;100.00
3844;BME280;1937;51.444;6.484;2023-02-19T00:32:04;70215.59;;;10.65;100.00
3844;BME280;1937;51.444;6.484;2023-02-19T00:34:31;70203.47;;;10.64;100.00
3844;BME280;1937;51.444;6.484;2023-02-19T00:36:58;70244.09;;;10.63;100.00
3844;BME280;1937;51.444;6.484;2023-02-19T00:39:24;70438.22;;;10.60;100.00
3844;BME280;1937;51.444;6.484;2023-02-19T00:41:52;70269.09;;;10.56;100.00
3844;BME280;1937;51.444;6.484;2023-02-19T00:44:19;70421.38;;;10.70;100.00
3844;BME280;1937;51.444;6.484;2023-02-19T00:46:46;70350.47;;;10.62;100.00
3844;BME280;1937;51.444;6.484;2023-02-19T00:49:15;70364.56;;;10.54;100.00
3844;BME280;1937;51.444;6.484;2023-02-19T00:51:43;70402.16;;;10.60;100.00
3844;BME280;1937;51.444;6.484;2023-02-19T00:54:10;70515.50;;;10.68;100.00
3844;BME280;1937;51.444;6.484;2023-02-19T00:56:37;70507.47;;;10.64;100.00
3844;BME280;1937;51.444;6.484;2023-02-19T00:59:05;70460.16;;;10.50;100.00
3844;BME280;1937;51.444;6.484;2023-02-19T01:01:32;70515.16;;;10.55;100.00
3844;BME280;1937;51.444;6.484;2023-02-19T01:03:58;70580.97;;;10.63;100.00
3844;BME280;1937;51.444;6.484;2023-02-19T01:06:25;70481.25;;;10.53;100.00
3844;BME280;1937;51.444;6.484;2023-02-19T01:08:54;70525.78;;;10.51;100.00
3844;BME280;1937;51.444;6.484;2023-02-19T01:11:21;70564.53;;;10.41;100.00
3844;BME280;1937;51.444;6.484;2023-02-19T01:13:47;70597.75;;;10.53;100.00
3844;BME280;1937;51.444;6.484;2023-02-19T01:16:17;70595.50;;;10.58;100.00
3844;BME280;1937;51.444;6.484;2023-02-19T01:18:45;70558.19;;;10.48;100.00
3844;BME280;1937;51.444;6.484;2023-02-19T01:21:15;70604.22;;;10.44;100.00
3844;BME280;1937;51.444;6.484;2023-02-19T01:23:43;70655.13;;;10.43;100.00
3844;BME280;1937;51.444;6.484;2023-02-19T01:26:13;70829.94;;;10.58;100.00
3844;BME280;1937;51.444;6.484;2023-02-19T01:28:39;70717.63;;;10.52;100.00
3844;BME280;1937;51.444;6.484;2023-02-19T01:31:07;70817.38;;;10.62;100.00
3844;BME280;1937;51.444;6.484;2023-02-19T01:33:37;70683.66;;;10.50;100.00
3844;BME280;1937;51.444;6.484;2023-02-19T01:36:05;70778.03;;;10.45;100.00
3844;BME280;1937;51.444;6.484;2023-02-19T01:38:32;70905.88;;;10.59;100.00
3844;BME280;1937;51.444;6.484;2023-02-19T01:41:04;70871.50;;;10.62;100.00
3844;BME280;1937;51.444;6.484;2023-02-19T01:43:31;70818.41;;;10.57;100.00
3844;BME280;1937;51.444;6.484;2023-02-19T01:45:59;70793.19;;;10.49;100.00
3844;BME280;1937;51.444;6.484;2023-02-19T01:48:28;70757.97;;;10.37;100.00
3844;BME280;1937;51.444;6.484;2023-02-19T01:51:02;70907.75;;;10.50;100.00
3844;BME280;1937;51.444;6.484;2023-02-19T01:53:33;70858.16;;;10.41;100.00
3844;BME280;1937;51.444;6.484;2023-02-19T01:56:02;70863.03;;;10.45;100.00
3844;BME280;1937;51.444;6.484;2023-02-19T01:58:32;70853.13;;;10.39;100.00
3844;BME280;1937;51.444;6.484;2023-02-19T02:01:00;70857.00;;;10.48;100.00
3844;BME280;1937;51.444;6.484;2023-02-19T02:03:28;70779.66;;;10.40;100.00
3844;BME280;1937;51.444;6.484;2023-02-19T02:06:00;70843.44;;;10.39;100.00
3844;BME280;1937;51.444;6.484;2023-02-19T02:08:27;70902.94;;;10.54;100.00
3844;BME280;1937;51.444;6.484;2023-02-19T02:11:13;70827.28;;;10.68;100.00
3844;BME280;1937;51.444;6.484;2023-02-19T02:13:40;70699.34;;;10.65;100.00
3844;BME280;1937;51.444;6.484;2023-02-19T02:16:16;70659.59;;;10.53;100.00
3844;BME280;1937;51.444;6.484;2023-02-19T02:18:54;70724.94;;;10.67;100.00
3844;BME280;1937;51.444;6.484;2023-02-19T02:21:52;70592.44;;;10.55;100.00
3844;BME280;1937;51.444;6.484;2023-02-19T02:27:47;70604.91;;;10.61;100.00
3844;BME280;1937;51.444;6.484;2023-02-19T02:30:25;70510.78;;;10.62;100.00
3844;BME280;1937;51.444;6.484;2023-02-19T02:32:57;70483.34;;;10.50;100.00
3844;BME280;1937;51.444;6.484;2023-02-19T02:35:29;70492.16;;;10.62;100.00
3844;BME280;1937;51.444;6.484;2023-02-19T02:38:01;70430.78;;;10.56;100.00
3844;BME280;1937;51.444;6.484;2023-02-19T02:40:28;70389.25;;;10.51;100.00
3844;BME280;1937;51.444;6.484;2023-02-19T02:42:56;70512.00;;;10.63;100.00
3844;BME280;1937;51.444;6.484;2023-02-19T02:45:28;70391.06;;;10.61;100.00
3844;BME280;1937;51.444;6.484;2023-02-19T02:48:05;70254.72;;;10.51;100.00
3844;BME280;1937;51.444;6.484;2023-02-19T02:50:36;70246.66;;;10.55;100.00
3844;BME280;1937;51.444;6.484;2023-02-19T02:53:08;70180.97;;;10.47;100.00
3844;BME280;1937;51.444;6.484;2023-02-19T02:55:54;70251.09;;;10.48;100.00
3844;BME280;1937;51.444;6.484;2023-02-19T02:58:22;70138.66;;;10.53;100.00
3844;BME280;1937;51.444;6.484;2023-02-19T03:00:53;70097.41;;;10.61;100.00
3844;BME280;1937;51.444;6.484;2023-02-19T03:03:37;70032.63;;;10.50;100.00
3844;BME280;1937;51.444;6.484;2023-02-19T03:06:08;70033.34;;;10.57;100.00
3844;BME280;1937;51.444;6.484;2023-02-19T03:08:40;70017.84;;;10.66;100.00
3844;BME280;1937;51.444;6.484;2023-02-19T03:11:10;69929.38;;;10.61;100.00
3844;BME280;1937;51.444;6.484;2023-02-19T03:13:58;69951.69;;;10.56;100.00
3844;BME280;1937;51.444;6.484;2023-02-19T03:16:47;69823.44;;;10.65;100.00
3844;BME280;1937;51.444;6.484;2023-02-19T03:19:35;69685.88;;;10.62;100.00
3844;BME280;1937;51.444;6.484;2023-02-19T03:22:07;69693.06;;;10.83;100.00
3844;BME280;1937;51.444;6.484;2023-02-19T03:24:39;69502.97;;;10.55;100.00
3844;BME280;1937;51.444;6.484;2023-02-19T03:27:27;69527.34;;;10.56;100.00
3844;BME280;1937;51.444;6.484;2023-02-19T03:29:57;69594.19;;;10.65;100.00
3844;BME280;1937;51.444;6.484;2023-02-19T03:32:31;69437.81;;;10.57;100.00
3844;BME280;1937;51.444;6.484;2023-02-19T03:35:03;69440.84;;;10.66;100.00
3844;BME280;1937;51.444;6.484;2023-02-19T03:37:34;69435.78;;;10.79;100.00
3844;BME280;1937;51.444;6.484;2023-02-19T03:40:04;69354.84;;;10.63;100.00
3844;BME280;1937;51.444;6.484;2023-02-19T03:42:35;69377.50;;;10.76;100.00
3844;BME280;1937;51.444;6.484;2023-02-19T03:45:17;69310.34;;;10.78;100.00
3844;BME280;1937;51.444;6.484;2023-02-19T03:47:54;69298.81;;;10.70;100.00
3844;BME280;1937;51.444;6.484;2023-02-19T03:50:25;69255.22;;;10.68;100.00
3844;BME280;1937;51.444;6.484;2023-02-19T03:52:58;69249.91;;;10.77;100.00
3844;BME280;1937;51.444;6.484;2023-02-19T03:55:33;69232.81;;;10.66;100.00
3844;BME280;1937;51.444;6.484;2023-02-19T03:58:07;69283.38;;;10.70;100.00
3844;BME280;1937;51.444;6.484;2023-02-19T04:00:39;69250.19;;;10.53;100.00
3844;BME280;1937;51.444;6.484;2023-02-19T04:03:16;69279.91;;;10.52;100.00
3844;BME280;1937;51.444;6.484;2023-02-19T04:05:47;69213.72;;;10.44;100.00
3844;BME280;1937;51.444;6.484;2023-02-19T04:08:19;69256.88;;;10.37;100.00
3844;BME280;1937;51.444;6.484;2023-02-19T04:10:48;69331.03;;;10.56;100.00
3844;BME280;1937;51.444;6.484;2023-02-19T04:13:19;69298.53;;;10.52;100.00
3844;BME280;1937;51.444;6.484;2023-02-19T04:15:47;69362.50;;;10.21;100.00
3844;BME280;1937;51.444;6.484;2023-02-19T04:18:21;69458.59;;;10.33;100.00
3844;BME280;1937;51.444;6.484;2023-02-19T04:20:49;69455.81;;;10.29;100.00
3844;BME280;1937;51.444;6.484;2023-02-19T04:23:18;69521.47;;;10.21;100.00
3844;BME280;1937;51.444;6.484;2023-02-19T04:25:48;69575.78;;;10.10;100.00
3844;BME280;1937;51.444;6.484;2023-02-19T04:28:16;69639.88;;;9.91;100.00
3844;BME280;1937;51.444;6.484;2023-02-19T04:30:43;69748.19;;;9.95;100.00
3844;BME280;1937;51.444;6.484;2023-02-19T04:33:11;69818.19;;;10.04;100.00
3844;BME280;1937;51.444;6.484;2023-02-19T04:35:39;69844.56;;;9.96;100.00
3844;BME280;1937;51.444;6.484;2023-02-19T04:38:05;69996.28;;;10.22;100.00
3844;BME280;1937;51.444;6.484;2023-02-19T04:40:32;69860.81;;;9.95;100.00
3844;BME280;1937;51.444;6.484;2023-02-19T04:42:58;69916.47;;;9.98;100.00
3844;BME280;1937;51.444;6.484;2023-02-19T04:45:25;69990.56;;;10.13;100.00
3844;BME280;1937;51.444;6.484;2023-02-19T04:47:51;69883.88;;;10.03;100.00
3844;BME280;1937;51.444;6.484;2023-02-19T04:50:18;69909.72;;;10.10;100.00
3844;BME280;1937;51.444;6.484;2023-02-19T04:52:47;69799.91;;;10.00;100.00
3844;BME280;1937;51.444;6.484;2023-02-19T04:55:13;69963.00;;;10.11;100.00
3844;BME280;1937;51.444;6.484;2023-02-19T04:57:40;69803.59;;;10.09;100.00
3844;BME280;1937;51.444;6.484;2023-02-19T05:00:08;69805.53;;;10.17;100.00
3844;BME280;1937;51.444;6.484;2023-02-19T05:02:35;69727.63;;;10.25;100.00
3844;BME280;1937;51.444;6.484;2023-02-19T05:05:01;69619.28;;;10.06;100.00
3844;BME280;1937;51.444;6.484;2023-02-19T05:07:28;69677.09;;;10.22;100.00
3844;BME280;1937;51.444;6.484;2023-02-19T05:09:56;69620.03;;;10.19;100.00
3844;BME280;1937;51.444;6.484;2023-02-19T05:12:24;69536.19;;;9.92;100.00
3844;BME280;1937;51.444;6.484;2023-02-19T05:14:50;69664.13;;;10.15;100.00
3844;BME280;1937;51.444;6.484;2023-02-19T05:17:17;69729.69;;;10.16;100.00
3844;BME280;1937;51.444;6.484;2023-02-19T05:19:43;69669.88;;;10.31;100.00
3844;BME280;1937;51.444;6.484;2023-02-19T05:22:10;69588.97;;;10.21;100.00
3844;BME280;1937;51.444;6.484;2023-02-19T05:24:36;69531.25;;;10.12;100.00
3844;BME280;1937;51.444;6.484;2023-02-19T05:27:04;69545.94;;;9.98;100.00
3844;BME280;1937;51.444;6.484;2023-02-19T05:29:31;69599.94;;;10.13;100.00
3844;BME280;1937;51.444;6.484;2023-02-19T05:31:57;69582.66;;;10.05;100.00
3844;BME280;1937;51.444;6.484;2023-02-19T05:34:24;69457.41;;;9.89;100.00
3844;BME280;1937;51.444;6.484;2023-02-19T05:36:51;69580.81;;;9.82;100.00
3844;BME280;1937;51.444;6.484;2023-02-19T05:39:17;69673.06;;;10.01;100.00
3844;BME280;1937;51.444;6.484;2023-02-19T05:41:44;69664.56;;;10.03;100.00
3844;BME280;1937;51.444;6.484;2023-02-19T05:44:14;69634.13;;;9.90;100.00
3844;BME280;1937;51.444;6.484;2023-02-19T05:46:42;69712.75;;;9.96;100.00
3844;BME280;1937;51.444;6.484;2023-02-19T05:49:11;69753.19;;;10.12;100.00
3844;BME280;1937;51.444;6.484;2023-02-19T05:51:40;69672.97;;;9.95;100.00
3844;BME280;1937;51.444;6.484;2023-02-19T05:54:08;69721.00;;;10.05;100.00
3844;BME280;1937;51.444;6.484;2023-02-19T05:56:38;69678.78;;;10.02;100.00
3844;BME280;1937;51.444;6.484;2023-02-19T05:59:20;69637.72;;;9.93;100.00
3844;BME280;1937;51.444;6.484;2023-02-19T06:01:51;69594.69;;;9.85;100.00
3844;BME280;1937;51.444;6.484;2023-02-19T06:04:20;69679.75;;;9.98;100.00
3844;BME280;1937;51.444;6.484;2023-02-19T06:06:50;69630.16;;;9.91;100.00
3844;BME280;1937;51.444;6.484;2023-02-19T06:09:18;69665.06;;;9.97;100.00
3844;BME280;1937;51.444;6.484;2023-02-19T06:11:46;69562.69;;;9.91;100.00
3844;BME280;1937;51.444;6.484;2023-02-19T06:14:15;69610.88;;;9.99;100.00
3844;BME280;1937;51.444;6.484;2023-02-19T06:16:43;69520.69;;;9.85;100.00
3844;BME280;1937;51.444;6.484;2023-02-19T06:19:12;69572.22;;;9.77;100.00
3844;BME280;1937;51.444;6.484;2023-02-19T06:21:41;69631.53;;;9.90;100.00
3844;BME280;1937;51.444;6.484;2023-02-19T06:24:10;69660.63;;;9.89;100.00
3844;BME280;1937;51.444;6.484;2023-02-19T06:26:39;69568.78;;;9.87;100.00
3844;BME280;1937;51.444;6.484;2023-02-19T06:29:07;69585.44;;;9.88;100.00
3844;BME280;1937;51.444;6.484;2023-02-19T06:31:35;69568.78;;;9.87;100.00
3844;BME280;1937;51.444;6.484;2023-02-19T06:34:04;69604.78;;;10.02;100.00
3844;BME280;1937;51.444;6.484;2023-02-19T06:36:34;69606.34;;;9.99;100.00
3844;BME280;1937;51.444;6.484;2023-02-19T06:39:04;69517.94;;;9.88;100.00
3844;BME280;1937;51.444;6.484;2023-02-19T06:41:33;69573.31;;;9.86;100.00
3844;BME280;1937;51.444;6.484;2023-02-19T06:44:02;69598.69;;;9.91;100.00
3844;BME280;1937;51.444;6.484;2023-02-19T06:46:30;69616.81;;;9.82;100.00
3844;BME280;1937;51.444;6.484;2023-02-19T06:48:59;69551.91;;;9.66;100.00
3844;BME280;1937;51.444;6.484;2023-02-19T06:51:27;69654.53;;;9.77;100.00
3844;BME280;1937;51.444;6.484;2023-02-19T06:53:57;69574.97;;;9.75;100.00
3844;BME280;1937;51.444;6.484;2023-02-19T06:56:28;69661.91;;;9.81;100.00
3844;BME280;1937;51.444;6.484;2023-02-19T06:58:58;69662.16;;;9.85;100.00
3844;BME280;1937;51.444;6.484;2023-02-19T07:01:27;69565.69;;;9.78;100.00
3844;BME280;1937;51.444;6.484;2023-02-19T07:03:57;69631.66;;;9.81;100.00
3844;BME280;1937;51.444;6.484;2023-02-19T07:06:27;69636.69;;;9.90;100.00
3844;BME280;1937;51.444;6.484;2023-02-19T07:08:58;69564.84;;;9.88;100.00
3844;BME280;1937;51.444;6.484;2023-02-19T07:11:27;69482.56;;;9.73;100.00
3844;BME280;1937;51.444;6.484;2023-02-19T07:13:57;69564.09;;;9.74;100.00
3844;BME280;1937;51.444;6.484;2023-02-19T07:16:26;69633.00;;;9.80;100.00
3844;BME280;1937;51.444;6.484;2023-02-19T07:18:57;69512.50;;;9.61;100.00
3844;BME280;1937;51.444;6.484;2023-02-19T07:21:26;69578.22;;;9.67;100.00
3844;BME280;1937;51.444;6.484;2023-02-19T07:23:56;69598.63;;;9.84;100.00
3844;BME280;1937;51.444;6.484;2023-02-19T07:26:25;69537.72;;;9.52;100.00
3844;BME280;1937;51.444;6.484;2023-02-19T07:28:53;69587.75;;;9.68;100.00
3844;BME280;1937;51.444;6.484;2023-02-19T07:31:23;69592.22;;;9.76;100.00
3844;BME280;1937;51.444;6.484;2023-02-19T07:33:53;69582.00;;;9.68;100.00
3844;BME280;1937;51.444;6.484;2023-02-19T07:36:22;69564.84;;;9.73;100.00
3844;BME280;1937;51.444;6.484;2023-02-19T07:38:54;69604.13;;;9.95;100.00
3844;BME280;1937;51.444;6.484;2023-02-19T07:41:24;69519.75;;;9.89;100.00
3844;BME280;1937;51.444;6.484;2023-02-19T07:43:55;69527.88;;;9.92;100.00
3844;BME280;1937;51.444;6.484;2023-02-19T07:46:23;69570.84;;;9.93;100.00
3844;BME280;1937;51.444;6.484;2023-02-19T07:48:52;69545.34;;;9.98;100.00
3844;BME280;1937;51.444;6.484;2023-02-19T07:51:21;69498.50;;;10.04;100.00
3844;BME280;1937;51.444;6.484;2023-02-19T07:53:50;69450.22;;;10.04;100.00
3844;BME280;1937;51.444;6.484;2023-02-19T07:56:19;69476.56;;;10.26;100.00
3844;BME280;1937;51.444;6.484;2023-02-19T07:58:49;69353.28;;;10.09;100.00
3844;BME280;1937;51.444;6.484;2023-02-19T08:01:20;69335.66;;;10.34;100.00
3844;BME280;1937;51.444;6.484;2023-02-19T08:04:14;69267.72;;;10.31;100.00
3844;BME280;1937;51.444;6.484;2023-02-19T08:06:43;69217.19;;;10.27;100.00
3844;BME280;1937;51.444;6.484;2023-02-19T08:09:12;69225.13;;;10.32;100.00
3844;BME280;1937;51.444;6.484;2023-02-19T08:11:43;69198.22;;;10.31;100.00
3844;BME280;1937;51.444;6.484;2023-02-19T08:14:30;69166.78;;;10.43;100.00
3844;BME280;1937;51.444;6.484;2023-02-19T08:16:58;69157.28;;;10.42;100.00
3844;BME280;1937;51.444;6.484;2023-02-19T08:19:26;69236.16;;;10.58;100.00
3844;BME280;1937;51.444;6.484;2023-02-19T08:21:55;69113.47;;;10.29;100.00
3844;BME280;1937;51.444;6.484;2023-02-19T08:24:23;69078.44;;;10.38;100.00
3844;BME280;1937;51.444;6.484;2023-02-19T08:26:51;69089.09;;;10.21;100.00
3844;BME280;1937;51.444;6.484;2023-02-19T08:29:20;69105.75;;;10.29;100.00
3844;BME280;1937;51.444;6.484;2023-02-19T08:31:50;69124.63;;;10.47;100.00
3844;BME280;1937;51.444;6.484;2023-02-19T08:34:20;69156.31;;;10.52;100.00
3844;BME280;1937;51.444;6.484;2023-02-19T08:36:49;69108.16;;;10.44;100.00
3844;BME280;1937;51.444;6.484;2023-02-19T08:39:17;69073.69;;;10.41;100.00
3844;BME280;1937;51.444;6.484;2023-02-19T08:41:46;69041.44;;;10.42;100.00
3844;BME280;1937;51.444;6.484;2023-02-19T08:44:14;69042.44;;;10.51;100.00
3844;BME280;1937;51.444;6.484;2023-02-19T08:46:42;69016.06;;;10.44;100.00
3844;BME280;1937;51.444;6.484;2023-02-19T08:49:12;69037.84;;;10.39;100.00
3844;BME280;1937;51.444;6.484;2023-02-19T08:51:40;68970.13;;;10.40;100.00
3844;BME280;1937;51.444;6.484;2023-02-19T08:54:11;69017.84;;;10.33;100.00
3844;BME280;1937;51.444;6.484;2023-02-19T08:56:39;69032.91;;;10.43;100.00
3844;BME280;1937;51.444;6.484;2023-02-19T08:59:07;69061.03;;;10.45;100.00
3844;BME280;1937;51.444;6.484;2023-02-19T09:01:35;69043.59;;;10.39;100.00
3844;BME280;1937;51.444;6.484;2023-02-19T09:04:04;69021.81;;;10.38;100.00
3844;BME280;1937;51.444;6.484;2023-02-19T09:06:33;68995.47;;;10.24;100.00
3844;BME280;1937;51.444;6.484;2023-02-19T09:09:02;69051.69;;;10.29;100.00
3844;BME280;1937;51.444;6.484;2023-02-19T09:11:30;69049.72;;;10.22;100.00
3844;BME280;1937;51.444;6.484;2023-02-19T09:13:58;69099.34;;;10.14;100.00
3844;BME280;1937;51.444;6.484;2023-02-19T09:16:28;69182.78;;;10.31;100.00
3844;BME280;1937;51.444;6.484;2023-02-19T09:18:59;69177.09;;;10.08;100.00
3844;BME280;1937;51.444;6.484;2023-02-19T09:21:27;69147.19;;;9.98;100.00
3844;BME280;1937;51.444;6.484;2023-02-19T09:23:57;69261.31;;;9.88;100.00
3844;BME280;1937;51.444;6.484;2023-02-19T09:26:25;69329.09;;;9.78;100.00
3844;BME280;1937;51.444;6.484;2023-02-19T09:28:53;69359.59;;;9.60;100.00
3844;BME280;1937;51.444;6.484;2023-02-19T09:31:22;69549.22;;;9.90;100.00
3844;BME280;1937;51.444;6.484;2023-02-19T09:33:50;69654.25;;;10.03;100.00
3844;BME280;1937;51.444;6.484;2023-02-19T09:36:19;69717.59;;;10.30;100.00
3844;BME280;1937;51.444;6.484;2023-02-19T09:38:47;69654.25;;;10.33;100.00
3844;BME280;1937;51.444;6.484;2023-02-19T09:41:21;69494.66;;;9.96;100.00
3844;BME280;1937;51.444;6.484;2023-02-19T09:43:51;69593.44;;;10.14;100.00
3844;BME280;1937;51.444;6.484;2023-02-19T09:46:23;69694.84;;;10.33;100.00
3844;BME280;1937;51.444;6.484;2023-02-19T09:49:01;69662.06;;;10.40;100.00
3844;BME280;1937;51.444;6.484;2023-02-19T09:51:32;69534.16;;;10.45;100.00
3844;BME280;1937;51.444;6.484;2023-02-19T09:54:02;69600.59;;;10.51;100.00
3844;BME280;1937;51.444;6.484;2023-02-19T09:56:33;69557.22;;;10.53;100.00
3844;BME280;1937;51.444;6.484;2023-02-19T09:59:01;69482.44;;;10.40;100.00
3844;BME280;1937;51.444;6.484;2023-02-19T10:01:35;69526.84;;;10.69;100.00
3844;BME280;1937;51.444;6.484;2023-02-19T10:04:06;69425.19;;;10.68;100.00
3844;BME280;1937;51.444;6.484;2023-02-19T10:06:34;69424.16;;;10.87;100.00
3844;BME280;1937;51.444;6.484;2023-02-19T10:09:15;69232.41;;;10.64;100.00
3844;BME280;1937;51.444;6.484;2023-02-19T10:11:47;69293.22;;;10.61;100.00
3844;BME280;1937;51.444;6.484;2023-02-19T10:14:18;69295.50;;;10.43;100.00
3844;BME280;1937;51.444;6.484;2023-02-19T10:16:48;69404.28;;;10.50;100.00
3844;BME280;1937;51.444;6.484;2023-02-19T10:19:17;69380.56;;;10.56;100.00
3844;BME280;1937;51.444;6.484;2023-02-19T10:21:46;69195.75;;;10.15;100.00
3844;BME280;1937;51.444;6.484;2023-02-19T10:24:19;69277.66;;;10.06;100.00
3844;BME280;1937;51.444;6.484;2023-02-19T10:26:50;69380.19;;;10.10;100.00
3844;BME280;1937;51.444;6.484;2023-02-19T10:29:18;69296.16;;;9.94;100.00
3844;BME280;1937;51.444;6.484;2023-02-19T10:31:47;69423.22;;;9.97;100.00
3844;BME280;1937;51.444;6.484;2023-02-19T10:34:21;69522.25;;;10.04;100.00
3844;BME280;1937;51.444;6.484;2023-02-19T10:36:50;69582.31;;;9.94;100.00
3844;BME280;1937;51.444;6.484;2023-02-19T10:39:33;69705.31;;;10.15;100.00
3844;BME280;1937;51.444;6.484;2023-02-19T10:42:06;69855.09;;;10.48;100.00
3844;BME280;1937;51.444;6.484;2023-02-19T10:44:43;69827.03;;;10.68;100.00
3844;BME280;1937;51.444;6.484;2023-02-19T10:47:18;69619.31;;;10.43;100.00
3844;BME280;1937;51.444;6.484;2023-02-19T10:49:48;69737.59;;;10.60;100.00
3844;BME280;1937;51.444;6.484;2023-02-19T10:52:21;69685.97;;;10.68;100.00
3844;BME280;1937;51.444;6.484;2023-02-19T10:54:54;69562.22;;;10.77;100.00
3844;BME280;1937;51.444;6.484;2023-02-19T10:57:27;69431.72;;;10.67;100.00
3844;BME280;1937;51.444;6.484;2023-02-19T11:00:04;69379.16;;;10.86;100.00
3844;BME280;1937;51.444;6.484;2023-02-19T11:02:46;69404.66;;;10.75;100.00
3844;BME280;1937;51.444;6.484;2023-02-19T11:05:18;69426.44;;;10.76;100.00
3844;BME280;1937;51.444;6.484;2023-02-19T11:07:48;69417.31;;;10.70;100.00
3844;BME280;1937;51.444;6.484;2023-02-19T11:10:23;69483.44;;;10.65;100.00
3844;BME280;1937;51.444;6.484;2023-02-19T11:12:55;69434.03;;;10.56;100.00
3844;BME280;1937;51.444;6.484;2023-02-19T11:15:27;69333.81;;;10.25;100.00
3844;BME280;1937;51.444;6.484;2023-02-19T11:17:59;69439.69;;;10.43;100.00
3844;BME280;1937;51.444;6.484;2023-02-19T11:20:31;69406.94;;;10.13;100.00
3844;BME280;1937;51.444;6.484;2023-02-19T11:23:04;69452.94;;;10.17;100.00
3844;BME280;1937;51.444;6.484;2023-02-19T11:25:45;69518.31;;;10.05;100.00
3844;BME280;1937;51.444;6.484;2023-02-19T11:28:25;69528.69;;;10.12;100.00
3844;BME280;1937;51.444;6.484;2023-02-19T11:30:55;69551.66;;;10.14;100.00
3844;BME280;1937;51.444;6.484;2023-02-19T11:33:44;69621.41;;;10.34;100.00
3844;BME280;1937;51.444;6.484;2023-02-19T11:36:31;69638.06;;;10.19;100.00
3844;BME280;1937;51.444;6.484;2023-02-19T11:39:03;69764.59;;;10.37;100.00
3844;BME280;1937;51.444;6.484;2023-02-19T11:41:54;69769.34;;;10.50;100.00
3844;BME280;1937;51.444;6.484;2023-02-19T11:44:33;69941.59;;;10.69;100.00
3844;BME280;1937;51.444;6.484;2023-02-19T11:47:34;69948.63;;;11.01;100.00
3844;BME280;1937;51.444;6.484;2023-02-19T11:50:14;69707.28;;;10.97;100.00
3844;BME280;1937;51.444;6.484;2023-02-19T11:52:50;69590.72;;;10.75;100.00
3844;BME280;1937;51.444;6.484;2023-02-19T11:55:30;69317.50;;;10.49;100.00
3844;BME280;1937;51.444;6.484;2023-02-19T11:58:10;69257.81;;;10.75;100.00
3844;BME280;1937;51.444;6.484;2023-02-19T12:00:52;69239.00;;;10.76;100.00
3844;BME280;1937;51.444;6.484;2023-02-19T12:03:37;69220.03;;;10.93;100.00
3844;BME280;1937;51.444;6.484;2023-02-19T12:06:18;69165.53;;;11.03;98.96
3844;BME280;1937;51.444;6.484;2023-02-19T12:09:10;68964.97;;;10.73;98.92
3844;BME280;1937;51.444;6.484;2023-02-19T12:11:52;68992.91;;;10.84;99.24
3844;BME280;1937;51.444;6.484;2023-02-19T12:14:39;69003.00;;;10.86;99.26
3844;BME280;1937;51.444;6.484;2023-02-19T12:17:20;68964.56;;;10.90;98.97
3844;BME280;1937;51.444;6.484;2023-02-19T12:20:00;68943.97;;;10.84;98.98
3844;BME280;1937;51.444;6.484;2023-02-19T12:22:32;68869.13;;;10.66;100.00
3844;BME280;1937;51.444;6.484;2023-02-19T12:25:28;69074.38;;;10.94;100.00
3844;BME280;1937;51.444;6.484;2023-02-19T12:28:10;69100.31;;;10.98;100.00
3844;BME280;1937;51.444;6.484;2023-02-19T12:30:59;69061.69;;;11.12;98.68
3844;BME280;1937;51.444;6.484;2023-02-19T12:33:48;68957.03;;;11.01;99.12
3844;BME280;1937;51.444;6.484;2023-02-19T12:36:26;69012.50;;;11.27;98.15
3844;BME280;1937;51.444;6.484;2023-02-19T12:39:05;68947.06;;;11.24;98.17
3844;BME280;1937;51.444;6.484;2023-02-19T12:41:45;68909.53;;;11.38;97.41
3844;BME280;1937;51.444;6.484;2023-02-19T12:44:21;68885.97;;;11.35;95.49
3844;BME280;1937;51.444;6.484;2023-02-19T12:46:58;68813.81;;;11.29;95.36
3844;BME280;1937;51.444;6.484;2023-02-19T12:49:34;68768.69;;;11.10;97.14
3844;BME280;1937;51.444;6.484;2023-02-19T12:52:08;68773.53;;;10.94;97.70
3844;BME280;1937;51.444;6.484;2023-02-19T12:54:41;68704.44;;;10.77;98.75
3844;BME280;1937;51.444;6.484;2023-02-19T12:57:16;68753.63;;;10.62;100.00
3844;BME280;1937;51.444;6.484;2023-02-19T12:59:50;68791.72;;;10.42;100.00
3844;BME280;1937;51.444;6.484;2023-02-19T13:02:25;68874.47;;;10.44;100.00
3844;BME280;1937;51.444;6.484;2023-02-19T13:05:03;68967.75;;;10.51;100.00
3844;BME280;1937;51.444;6.484;2023-02-19T13:07:38;68914.50;;;10.37;100.00
3844;BME280;1937;51.444;6.484;2023-02-19T13:10:21;69039.66;;;10.47;100.00
3844;BME280;1937;51.444;6.484;2023-02-19T13:12:53;69054.69;;;10.51;100.00
3844;BME280;1937;51.444;6.484;2023-02-19T13:15:29;69124.66;;;10.60;100.00
3844;BME280;1937;51.444;6.484;2023-02-19T13:18:02;69179.91;;;10.67;100.00
3844;BME280;1937;51.444;6.484;2023-02-19T13:20:36;69099.66;;;10.52;100.00
3844;BME280;1937;51.444;6.484;2023-02-19T13:23:10;68907.97;;;10.31;100.00
3844;BME280;1937;51.444;6.484;2023-02-19T13:26:11;68888.16;;;10.43;100.00
3844;BME280;1937;51.444;6.484;2023-02-19T13:28:55;68833.88;;;10.58;98.89
3844;BME280;1937;51.444;6.484;2023-02-19T13:31:36;68750.75;;;10.40;100.00
3844;BME280;1937;51.444;6.484;2023-02-19T13:34:16;68754.28;;;10.43;99.23
3844;BME280;1937;51.444;6.484;2023-02-19T13:36:49;68711.53;;;10.46;98.81
3844;BME280;1937;51.444;6.484;2023-02-19T13:39:19;68694.13;;;10.40;100.00
3844;BME280;1937;51.444;6.484;2023-02-19T13:41:51;68757.66;;;10.48;98.93